createdAt,value
2023-04-18T00:00:33.038Z,6.53
2023-04-18T00:03:02.323Z,6.82
2023-04-18T00:05:30.446Z,7.03
2023-04-18T00:07:56.747Z,7.08
2023-04-18T00:10:23.087Z,6.69
2023-04-18T00:12:49.407Z,6.81
2023-04-18T00:15:15.799Z,6.40
2023-04-18T00:17:42.164Z,6.72
2023-04-18T00:20:09.369Z,6.78
2023-04-18T00:22:36.039Z,6.26
2023-04-18T00:25:02.395Z,6.38
2023-04-18T00:27:28.707Z,6.41
2023-04-18T00:29:54.993Z,6.40
2023-04-18T00:32:21.345Z,6.48
2023-04-18T00:34:47.665Z,6.66
2023-04-18T00:37:13.973Z,6.36
2023-04-18T00:39:40.318Z,6.56
2023-04-18T00:42:06.650Z,6.34
2023-04-18T00:44:33.037Z,6.34
2023-04-18T00:46:59.365Z,6.47
2023-04-18T00:49:26.793Z,6.41
2023-04-18T00:51:54.313Z,6.35
2023-04-18T00:54:21.571Z,6.63
2023-04-18T00:56:48.472Z,6.47
2023-04-18T00:59:14.756Z,6.69
2023-04-18T01:01:41.080Z,6.37
2023-04-18T01:04:08.144Z,6.41
2023-04-18T01:06:35.413Z,6.49
2023-04-18T01:09:01.829Z,6.66
2023-04-18T01:11:28.266Z,6.32
2023-04-18T01:14:08.056Z,6.51
2023-04-18T01:16:34.602Z,6.38
2023-04-18T01:19:01.752Z,6.52
2023-04-18T01:21:28.492Z,6.49
2023-04-18T01:23:57.759Z,6.45
2023-04-18T01:26:24.176Z,6.46
2023-04-18T01:28:50.463Z,6.40
2023-04-18T01:31:16.768Z,6.41
2023-04-18T01:33:43.147Z,6.59
2023-04-18T01:36:09.439Z,6.43
2023-04-18T01:38:35.752Z,6.66
2023-04-18T01:41:02.118Z,6.67
2023-04-18T01:43:28.415Z,6.96
2023-04-18T01:45:54.750Z,6.90
2023-04-18T01:48:21.056Z,6.68
2023-04-18T01:50:47.365Z,6.60
2023-04-18T01:53:13.677Z,6.47
2023-04-18T01:55:39.992Z,6.48
2023-04-18T01:58:06.301Z,6.45
2023-04-18T02:00:32.647Z,6.52
2023-04-18T02:02:59.285Z,6.44
2023-04-18T02:05:25.808Z,6.34
2023-04-18T02:07:52.109Z,6.33
2023-04-18T02:10:19.131Z,6.31
2023-04-18T02:12:45.499Z,6.38
2023-04-18T02:15:11.945Z,6.37
2023-04-18T02:17:38.306Z,6.24
2023-04-18T02:20:05.035Z,6.41
2023-04-18T02:22:31.778Z,6.16
2023-04-18T02:24:58.070Z,6.27
2023-04-18T02:27:24.389Z,6.19
2023-04-18T02:29:50.692Z,6.05
2023-04-18T02:32:16.992Z,5.97
2023-04-18T02:34:43.284Z,5.94
2023-04-18T02:37:09.594Z,6.20
2023-04-18T02:39:35.891Z,6.10
2023-04-18T02:42:02.190Z,5.94
2023-04-18T02:44:28.484Z,6.04
2023-04-18T02:46:54.773Z,5.92
2023-04-18T02:49:21.103Z,5.96
2023-04-18T02:51:47.476Z,5.96
2023-04-18T02:54:13.909Z,5.89
2023-04-18T02:56:40.435Z,5.85
2023-04-18T02:59:07.191Z,5.87
2023-04-18T03:01:34.029Z,5.92
2023-04-18T03:04:00.525Z,5.94
2023-04-18T03:06:26.844Z,5.97
2023-04-18T03:08:54.608Z,5.87
2023-04-18T03:11:20.942Z,5.83
2023-04-18T03:13:47.228Z,5.86
2023-04-18T03:16:13.668Z,5.96
2023-04-18T03:18:39.990Z,5.84
2023-04-18T03:21:06.304Z,5.84
2023-04-18T03:23:32.604Z,5.95
2023-04-18T03:25:59.024Z,5.96
2023-04-18T03:28:25.349Z,5.72
2023-04-18T03:30:51.761Z,5.75
2023-04-18T03:33:18.147Z,5.74
2023-04-18T03:35:44.506Z,5.71
2023-04-18T03:38:10.805Z,5.56
2023-04-18T03:40:37.136Z,5.77
2023-04-18T03:43:03.436Z,5.69
2023-04-18T03:45:30.124Z,5.85
2023-04-18T03:47:56.459Z,5.71
2023-04-18T03:50:22.870Z,5.67
2023-04-18T03:52:49.202Z,5.62
2023-04-18T03:55:15.805Z,5.71
2023-04-18T03:57:42.118Z,5.61
2023-04-18T04:00:10.572Z,5.65
2023-04-18T04:02:37.032Z,5.55
2023-04-18T04:05:03.756Z,5.54
2023-04-18T04:07:30.833Z,5.61
2023-04-18T04:09:57.772Z,5.48
2023-04-18T04:12:25.395Z,5.61
2023-04-18T04:14:51.710Z,5.53
2023-04-18T04:17:18.036Z,5.48
2023-04-18T04:19:44.341Z,5.64
2023-04-18T04:22:10.870Z,5.68
2023-04-18T04:24:37.171Z,5.54
2023-04-18T04:27:03.847Z,5.32
2023-04-18T04:29:30.157Z,5.36
2023-04-18T04:31:56.850Z,5.33
2023-04-18T04:34:23.223Z,5.29
2023-04-18T04:36:49.642Z,5.14
2023-04-18T04:39:15.990Z,5.27
2023-04-18T04:41:42.399Z,5.46
2023-04-18T04:44:08.867Z,5.17
2023-04-18T04:46:35.785Z,5.20
2023-04-18T04:49:02.088Z,5.18
2023-04-18T04:51:28.573Z,5.09
2023-04-18T04:53:54.882Z,5.14
2023-04-18T04:56:21.281Z,5.36
2023-04-18T04:58:47.576Z,5.20
2023-04-18T05:01:13.986Z,5.24
2023-04-18T05:03:40.388Z,5.13
2023-04-18T05:06:07.035Z,5.21
2023-04-18T05:08:33.359Z,5.48
2023-04-18T05:11:01.237Z,5.09
2023-04-18T05:13:27.562Z,5.16
2023-04-18T05:15:54.013Z,5.34
2023-04-18T05:18:20.330Z,5.23
2023-04-18T05:20:46.627Z,5.30
2023-04-18T05:23:12.957Z,5.42
2023-04-18T05:25:39.364Z,5.33
2023-04-18T05:28:05.701Z,5.34
2023-04-18T05:30:32.005Z,5.37
2023-04-18T05:32:58.313Z,5.34
2023-04-18T05:35:24.720Z,5.48
2023-04-18T05:37:51.013Z,5.57
2023-04-18T05:40:17.316Z,5.46
2023-04-18T05:42:43.623Z,5.64
2023-04-18T05:45:10.290Z,5.52
2023-04-18T05:47:36.719Z,5.56
2023-04-18T05:50:03.193Z,5.71
2023-04-18T05:52:29.511Z,5.52
2023-04-18T05:54:55.834Z,5.37
2023-04-18T05:57:22.174Z,5.53
2023-04-18T05:59:48.580Z,5.66
2023-04-18T06:02:15.013Z,5.46
2023-04-18T06:04:42.693Z,5.37
2023-04-18T06:07:09.929Z,5.32
2023-04-18T06:09:36.444Z,5.70
2023-04-18T06:12:03.065Z,5.49
2023-04-18T06:14:29.426Z,5.49
2023-04-18T06:16:55.948Z,5.77
2023-04-18T06:19:22.270Z,5.82
2023-04-18T06:21:49.097Z,5.66
2023-04-18T06:24:15.748Z,5.65
2023-04-18T06:26:42.326Z,5.97
2023-04-18T06:29:08.634Z,5.79
2023-04-18T06:31:34.976Z,5.74
2023-04-18T06:34:01.269Z,5.61
2023-04-18T06:36:27.706Z,5.62
2023-04-18T06:38:54.013Z,5.54
2023-04-18T06:41:20.304Z,5.60
2023-04-18T06:43:59.830Z,5.65
2023-04-18T06:46:30.097Z,5.83
2023-04-18T06:48:56.712Z,5.83
2023-04-18T06:51:23.062Z,6.09
2023-04-18T06:53:49.357Z,5.94
2023-04-18T06:56:15.677Z,5.81
2023-04-18T06:58:42.117Z,5.96
2023-04-18T07:01:08.459Z,6.18
2023-04-18T07:03:34.894Z,6.02
2023-04-18T07:06:01.275Z,5.99
2023-04-18T07:08:27.571Z,6.08
2023-04-18T07:10:53.924Z,6.07
2023-04-18T07:13:20.233Z,6.03
2023-04-18T07:15:46.648Z,6.25
2023-04-18T07:18:18.039Z,6.56
2023-04-18T07:20:49.838Z,6.37
2023-04-18T07:23:16.156Z,6.32
2023-04-18T07:25:42.452Z,6.55
2023-04-18T07:28:08.768Z,6.82
2023-04-18T07:30:35.078Z,6.44
2023-04-18T07:33:01.402Z,6.39
2023-04-18T07:35:27.778Z,6.55
2023-04-18T07:37:54.247Z,6.73
2023-04-18T07:40:21.074Z,6.85
2023-04-18T07:42:47.389Z,6.51
2023-04-18T07:45:13.703Z,6.84
2023-04-18T07:47:40.134Z,6.99
2023-04-18T07:50:07.174Z,7.17
2023-04-18T07:52:34.226Z,7.08
2023-04-18T07:55:00.537Z,7.11
2023-04-18T07:57:26.867Z,7.31
2023-04-18T07:59:53.233Z,7.54
2023-04-18T08:02:20.590Z,7.17
2023-04-18T08:04:47.064Z,6.75
2023-04-18T08:07:13.636Z,6.83
2023-04-18T08:09:39.932Z,6.76
2023-04-18T08:12:06.394Z,6.85
2023-04-18T08:14:32.714Z,7.11
2023-04-18T08:16:59.070Z,7.31
2023-04-18T08:19:25.669Z,7.16
2023-04-18T08:21:52.068Z,6.75
2023-04-18T08:24:18.627Z,6.89
2023-04-18T08:26:44.982Z,7.36
2023-04-18T08:29:11.551Z,7.27
2023-04-18T08:31:38.951Z,7.47
2023-04-18T08:34:05.376Z,7.15
2023-04-18T08:36:31.708Z,6.99
2023-04-18T08:38:57.997Z,6.98
2023-04-18T08:41:25.125Z,7.25
2023-04-18T08:43:51.475Z,7.47
2023-04-18T08:46:17.831Z,7.45
2023-04-18T08:48:44.265Z,7.43
2023-04-18T08:51:10.552Z,7.16
2023-04-18T08:53:37.302Z,7.56
2023-04-18T08:56:03.627Z,8.19
2023-04-18T08:58:29.923Z,8.27
2023-04-18T09:00:56.356Z,8.47
2023-04-18T09:03:40.957Z,8.28
2023-04-18T09:06:17.035Z,8.38
2023-04-18T09:08:43.572Z,8.53
2023-04-18T09:11:27.402Z,8.02
2023-04-18T09:13:54.173Z,8.29
2023-04-18T09:16:20.557Z,8.38
2023-04-18T09:19:07.818Z,8.52
2023-04-18T09:21:34.142Z,8.86
2023-04-18T09:24:17.511Z,9.28
2023-04-18T09:26:43.815Z,10.02
2023-04-18T09:29:10.121Z,9.90
2023-04-18T09:31:54.535Z,9.65
2023-04-18T09:34:21.516Z,10.57
2023-04-18T09:37:05.787Z,10.92
2023-04-18T09:39:32.200Z,10.74
2023-04-18T09:41:59.475Z,10.94
2023-04-18T09:44:25.885Z,10.60
2023-04-18T09:46:52.334Z,10.59
2023-04-18T09:49:18.754Z,10.24
2023-04-18T09:51:45.630Z,10.57
2023-04-18T09:54:16.346Z,10.57
2023-04-18T09:56:45.502Z,10.47
2023-04-18T09:59:15.849Z,10.54
2023-04-18T10:01:44.149Z,11.01
2023-04-18T10:04:12.368Z,10.68
2023-04-18T10:06:39.498Z,11.44
2023-04-18T10:09:09.033Z,11.32
2023-04-18T10:11:36.163Z,10.88
2023-04-18T10:14:10.862Z,10.94
2023-04-18T10:16:38.084Z,11.18
2023-04-18T10:19:25.643Z,11.54
2023-04-18T10:21:56.477Z,12.34
2023-04-18T10:24:52.170Z,11.40
2023-04-18T10:27:55.852Z,11.19
2023-04-18T10:30:42.094Z,11.52
2023-04-18T10:33:29.922Z,12.09
2023-04-18T10:36:17.100Z,11.77
2023-04-18T10:38:47.651Z,11.83
2023-04-18T10:41:28.876Z,11.98
2023-04-18T10:44:08.395Z,12.74
2023-04-18T10:46:38.233Z,12.09
2023-04-18T10:49:14.400Z,11.28
2023-04-18T10:51:41.205Z,11.60
2023-04-18T10:54:10.400Z,11.88
2023-04-18T10:56:37.085Z,10.81
2023-04-18T10:59:03.728Z,10.25
2023-04-18T11:01:32.688Z,10.54
2023-04-18T11:04:00.303Z,10.42
2023-04-18T11:06:26.749Z,10.44
2023-04-18T11:09:12.755Z,10.31
2023-04-18T11:11:39.543Z,10.21
2023-04-18T11:14:05.877Z,10.62
2023-04-18T11:16:33.746Z,10.94
2023-04-18T11:19:00.295Z,10.65
2023-04-18T11:21:29.217Z,10.94
2023-04-18T11:23:57.680Z,11.19
2023-04-18T11:26:27.839Z,11.38
2023-04-18T11:28:57.768Z,11.15
2023-04-18T11:31:24.961Z,10.79
2023-04-18T11:33:52.314Z,11.12
2023-04-18T11:36:18.703Z,10.93
2023-04-18T11:38:45.105Z,11.01
2023-04-18T11:41:15.485Z,10.57
2023-04-18T11:43:43.713Z,10.78
2023-04-18T11:46:10.833Z,11.84
2023-04-18T11:48:38.763Z,11.51
2023-04-18T11:51:06.368Z,11.05
2023-04-18T11:53:34.349Z,10.75
2023-04-18T11:56:00.901Z,11.15
2023-04-18T11:58:34.834Z,10.48
2023-04-18T12:01:22.294Z,10.77
2023-04-18T12:04:11.576Z,10.92
2023-04-18T12:06:50.875Z,10.89
2023-04-18T12:09:18.468Z,11.38
2023-04-18T12:11:55.971Z,10.76
2023-04-18T12:14:22.581Z,11.21
2023-04-18T12:16:50.023Z,11.53
2023-04-18T12:19:16.636Z,11.40
2023-04-18T12:22:02.885Z,11.40
2023-04-18T12:24:29.296Z,10.82
2023-04-18T12:26:55.858Z,10.83
2023-04-18T12:29:22.238Z,10.59
2023-04-18T12:31:48.617Z,10.88
2023-04-18T12:34:15.611Z,10.37
2023-04-18T12:36:42.741Z,10.75
2023-04-18T12:39:09.124Z,10.89
2023-04-18T12:41:35.546Z,10.90
2023-04-18T12:44:02.112Z,10.47
2023-04-18T12:46:28.530Z,10.74
2023-04-18T12:48:54.927Z,10.99
2023-04-18T12:51:21.208Z,11.42
2023-04-18T12:53:47.534Z,11.67
2023-04-18T12:56:13.905Z,11.84
2023-04-18T12:58:40.231Z,11.43
2023-04-18T13:01:06.574Z,12.10
2023-04-18T13:03:33.733Z,11.71
2023-04-18T13:06:00.267Z,12.03
2023-04-18T13:08:26.669Z,11.92
2023-04-18T13:10:53.059Z,11.94
2023-04-18T13:13:19.359Z,11.71
2023-04-18T13:15:45.791Z,12.25
2023-04-18T13:18:12.132Z,12.66
2023-04-18T13:20:38.432Z,12.63
2023-04-18T13:23:04.963Z,12.64
2023-04-18T13:25:31.328Z,12.74
2023-04-18T13:27:57.645Z,12.14
2023-04-18T13:30:24.079Z,12.25
2023-04-18T13:32:50.501Z,12.34
2023-04-18T13:35:16.951Z,12.59
2023-04-18T13:37:43.265Z,11.54
2023-04-18T13:40:09.945Z,11.73
2023-04-18T13:42:37.240Z,11.58
2023-04-18T13:45:04.492Z,11.71
2023-04-18T13:47:31.011Z,12.03
2023-04-18T13:49:57.450Z,12.28
2023-04-18T13:52:24.117Z,11.60
2023-04-18T13:54:50.475Z,12.44
2023-04-18T13:57:16.845Z,12.30
2023-04-18T13:59:43.152Z,12.43
2023-04-18T14:02:10.091Z,12.50
2023-04-18T14:04:36.854Z,12.68
2023-04-18T14:07:04.089Z,12.48
2023-04-18T14:09:30.396Z,11.27
2023-04-18T14:11:56.691Z,12.14
2023-04-18T14:14:22.998Z,11.68
2023-04-18T14:16:49.338Z,11.39
2023-04-18T14:19:15.905Z,11.08
2023-04-18T14:21:42.308Z,10.91
2023-04-18T14:24:08.965Z,11.35
2023-04-18T14:26:35.296Z,11.46
2023-04-18T14:29:01.583Z,11.57
2023-04-18T14:31:27.927Z,11.76
2023-04-18T14:33:54.232Z,12.15
2023-04-18T14:36:20.549Z,11.95
2023-04-18T14:38:47.856Z,12.16
2023-04-18T14:41:14.227Z,12.45
2023-04-18T14:43:40.563Z,12.31
2023-04-18T14:46:14.080Z,12.09
2023-04-18T14:48:40.595Z,12.46
2023-04-18T14:51:07.296Z,12.68
2023-04-18T14:53:34.034Z,12.61
2023-04-18T14:56:00.330Z,12.58
2023-04-18T14:58:26.688Z,11.88
2023-04-18T15:00:53.007Z,11.56
2023-04-18T15:03:19.376Z,11.74
2023-04-18T15:05:45.833Z,11.86
2023-04-18T15:08:15.161Z,12.38
2023-04-18T15:10:42.138Z,12.36
2023-04-18T15:13:09.438Z,12.09
2023-04-18T15:15:35.772Z,12.31
2023-04-18T15:18:02.132Z,12.25
2023-04-18T15:20:28.721Z,12.31
2023-04-18T15:22:55.864Z,11.85
2023-04-18T15:25:22.219Z,11.75
2023-04-18T15:27:48.556Z,12.03
2023-04-18T15:30:14.903Z,12.05
2023-04-18T15:32:41.279Z,12.28
2023-04-18T15:35:11.471Z,11.93
2023-04-18T15:37:37.794Z,12.11
2023-04-18T15:40:04.696Z,12.43
2023-04-18T15:42:31.214Z,12.28
2023-04-18T15:44:57.587Z,12.69
2023-04-18T15:47:23.966Z,12.70
2023-04-18T15:49:50.400Z,12.26
2023-04-18T15:52:16.763Z,11.77
2023-04-18T15:54:43.236Z,12.08
2023-04-18T15:57:10.391Z,12.30
2023-04-18T15:59:37.385Z,12.23
2023-04-18T16:02:04.012Z,12.31
2023-04-18T16:04:30.533Z,11.92
2023-04-18T16:06:56.908Z,12.39
2023-04-18T16:09:23.384Z,12.71
2023-04-18T16:11:49.726Z,12.24
2023-04-18T16:14:16.320Z,12.09
2023-04-18T16:16:42.800Z,12.18
2023-04-18T16:19:09.197Z,11.88
2023-04-18T16:21:35.566Z,12.00
2023-04-18T16:24:01.896Z,12.06
2023-04-18T16:26:28.247Z,11.85
2023-04-18T16:28:54.585Z,11.94
2023-04-18T16:31:20.921Z,12.01
2023-04-18T16:33:47.469Z,11.98
2023-04-18T16:36:13.821Z,12.22
2023-04-18T16:38:40.162Z,12.17
2023-04-18T16:41:06.463Z,11.95
2023-04-18T16:43:32.894Z,11.76
2023-04-18T16:45:59.198Z,11.88
2023-04-18T16:48:25.770Z,11.86
2023-04-18T16:50:52.076Z,11.81
2023-04-18T16:53:18.447Z,11.43
2023-04-18T16:55:44.740Z,11.85
2023-04-18T16:58:11.172Z,11.66
2023-04-18T17:00:38.479Z,11.61
2023-04-18T17:03:05.315Z,11.96
2023-04-18T17:05:31.639Z,11.77
2023-04-18T17:07:58.005Z,11.79
2023-04-18T17:10:24.505Z,11.38
2023-04-18T17:12:50.869Z,11.46
2023-04-18T17:15:18.204Z,11.20
2023-04-18T17:17:44.749Z,11.37
2023-04-18T17:20:11.420Z,11.42
2023-04-18T17:22:37.987Z,11.33
2023-04-18T17:25:05.138Z,11.41
2023-04-18T17:27:31.518Z,11.42
2023-04-18T17:29:57.861Z,11.13
2023-04-18T17:32:24.385Z,11.07
2023-04-18T17:34:50.713Z,11.21
2023-04-18T17:37:17.026Z,11.18
2023-04-18T17:39:43.790Z,11.44
2023-04-18T17:42:10.097Z,10.84
2023-04-18T17:44:36.559Z,11.12
2023-04-18T17:47:02.873Z,10.99
2023-04-18T17:49:29.189Z,10.97
2023-04-18T17:51:55.666Z,10.96
2023-04-18T17:54:21.973Z,10.94
2023-04-18T17:56:48.410Z,10.71
2023-04-18T17:59:14.908Z,10.58
2023-04-18T18:01:41.521Z,10.52
2023-04-18T18:04:07.949Z,10.54
2023-04-18T18:06:34.363Z,10.50
2023-04-18T18:09:00.694Z,10.53
2023-04-18T18:11:27.060Z,10.64
2023-04-18T18:13:53.614Z,10.35
2023-04-18T18:16:20.484Z,10.26
2023-04-18T18:18:46.813Z,10.23
2023-04-18T18:21:13.129Z,10.13
2023-04-18T18:23:39.458Z,9.98
2023-04-18T18:26:05.788Z,9.96
2023-04-18T18:28:32.165Z,9.99
2023-04-18T18:30:58.710Z,9.88
2023-04-18T18:33:25.075Z,10.11
2023-04-18T18:35:51.397Z,10.08
2023-04-18T18:38:17.705Z,10.09
2023-04-18T18:40:44.064Z,9.96
2023-04-18T18:43:10.381Z,9.87
2023-04-18T18:45:38.085Z,9.94
2023-04-18T18:48:05.322Z,9.92
2023-04-18T18:50:31.765Z,10.07
2023-04-18T18:52:58.065Z,10.04
2023-04-18T18:55:24.470Z,10.10
2023-04-18T18:57:51.041Z,10.18
2023-04-18T19:00:17.512Z,10.28
2023-04-18T19:02:44.111Z,10.33
2023-04-18T19:05:10.561Z,10.23
2023-04-18T19:07:36.875Z,10.09
2023-04-18T19:10:03.443Z,10.16
2023-04-18T19:12:29.760Z,10.05
2023-04-18T19:14:56.078Z,10.35
2023-04-18T19:17:22.540Z,10.49
2023-04-18T19:19:48.894Z,10.23
2023-04-18T19:22:15.203Z,10.42
2023-04-18T19:24:41.506Z,10.55
2023-04-18T19:27:07.891Z,10.45
2023-04-18T19:29:35.938Z,10.46
2023-04-18T19:32:02.265Z,10.26
2023-04-18T19:34:28.624Z,10.30
2023-04-18T19:36:55.022Z,10.46
2023-04-18T19:39:21.352Z,10.30
2023-04-18T19:41:47.684Z,10.06
2023-04-18T19:44:13.990Z,10.19
2023-04-18T19:46:40.351Z,10.63
2023-04-18T19:49:06.863Z,10.63
2023-04-18T19:51:33.194Z,10.49
2023-04-18T19:53:59.546Z,10.02
2023-04-18T19:56:25.861Z,10.16
2023-04-18T19:58:52.180Z,10.12
2023-04-18T20:01:19.622Z,10.16
2023-04-18T20:03:46.372Z,10.44
2023-04-18T20:06:13.275Z,10.18
2023-04-18T20:08:41.054Z,10.18
2023-04-18T20:11:11.732Z,10.34
2023-04-18T20:13:38.229Z,10.38
2023-04-18T20:16:05.315Z,10.31
2023-04-18T20:18:31.686Z,10.23
2023-04-18T20:20:58.349Z,10.25
2023-04-18T20:23:24.727Z,10.25
2023-04-18T20:25:51.082Z,10.25
2023-04-18T20:28:17.388Z,10.36
2023-04-18T20:30:43.740Z,10.47
2023-04-18T20:33:10.084Z,10.45
2023-04-18T20:35:36.411Z,10.44
2023-04-18T20:38:02.705Z,10.21
2023-04-18T20:40:29.056Z,10.33
2023-04-18T20:42:55.601Z,10.38
2023-04-18T20:45:22.077Z,10.27
2023-04-18T20:47:48.517Z,10.27
2023-04-18T20:50:15.052Z,10.20
2023-04-18T20:52:41.514Z,10.28
2023-04-18T20:55:08.263Z,10.48
2023-04-18T20:57:35.657Z,10.18
2023-04-18T21:00:01.980Z,10.15
2023-04-18T21:02:28.438Z,10.38
2023-04-18T21:04:54.843Z,10.26
2023-04-18T21:07:21.153Z,10.27
2023-04-18T21:09:47.477Z,10.37
2023-04-18T21:12:13.845Z,10.30
2023-04-18T21:14:40.160Z,10.15
2023-04-18T21:17:06.623Z,10.33
2023-04-18T21:19:32.945Z,10.27
2023-04-18T21:21:59.253Z,10.14
2023-04-18T21:24:25.568Z,10.32
2023-04-18T21:26:51.886Z,10.12
2023-04-18T21:29:18.190Z,10.07
2023-04-18T21:31:44.617Z,10.25
2023-04-18T21:34:10.954Z,10.13
2023-04-18T21:36:37.276Z,10.01
2023-04-18T21:39:03.668Z,10.04
2023-04-18T21:41:29.965Z,9.87
2023-04-18T21:43:56.282Z,9.96
2023-04-18T21:46:22.784Z,10.13
2023-04-18T21:48:49.156Z,9.90
2023-04-18T21:51:16.715Z,9.97
2023-04-18T21:53:43.383Z,9.90
2023-04-18T21:56:09.894Z,10.13
2023-04-18T21:58:36.388Z,9.84
2023-04-18T22:01:03.112Z,9.77
2023-04-18T22:03:29.759Z,9.77
2023-04-18T22:05:56.257Z,9.69
2023-04-18T22:08:23.340Z,9.69
2023-04-18T22:10:49.635Z,9.69
2023-04-18T22:13:16.449Z,9.68
2023-04-18T22:15:42.757Z,9.60
2023-04-18T22:18:09.243Z,9.50
2023-04-18T22:20:35.611Z,9.61
2023-04-18T22:23:02.358Z,9.49
2023-04-18T22:25:29.018Z,9.50
2023-04-18T22:27:55.329Z,9.57
2023-04-18T22:30:21.903Z,9.53
2023-04-18T22:32:48.242Z,9.43
2023-04-18T22:35:14.596Z,9.51
2023-04-18T22:37:40.904Z,9.48
2023-04-18T22:40:07.858Z,9.70
2023-04-18T22:42:35.194Z,9.70
2023-04-18T22:45:03.241Z,9.79
2023-04-18T22:47:29.574Z,9.53
2023-04-18T22:49:55.907Z,9.53
2023-04-18T22:52:22.244Z,9.53
2023-04-18T22:54:48.551Z,9.72
2023-04-18T22:57:14.873Z,9.69
2023-04-18T22:59:41.197Z,9.78
2023-04-18T23:02:07.648Z,9.61
2023-04-18T23:04:34.176Z,9.56
2023-04-18T23:07:00.576Z,9.49
2023-04-18T23:09:27.019Z,9.56
2023-04-18T23:11:53.557Z,9.47
2023-04-18T23:14:19.867Z,9.38
2023-04-18T23:16:46.145Z,9.37
2023-04-18T23:19:12.448Z,9.66
2023-04-18T23:21:38.745Z,9.43
2023-04-18T23:24:05.246Z,9.41
2023-04-18T23:26:31.560Z,9.53
2023-04-18T23:28:57.913Z,9.42
2023-04-18T23:31:24.295Z,9.36
2023-04-18T23:33:50.671Z,9.44
2023-04-18T23:36:17.188Z,9.29
2023-04-18T23:38:43.846Z,9.37
2023-04-18T23:41:10.156Z,9.26
2023-04-18T23:43:36.451Z,9.18
2023-04-18T23:46:02.769Z,9.18
2023-04-18T23:48:29.070Z,9.16
2023-04-18T23:50:55.349Z,9.12
2023-04-18T23:53:22.681Z,8.83
2023-04-18T23:55:50.651Z,9.09
2023-04-18T23:58:17.419Z,9.06
